Time;durP1;ratioP1;P1;durP2;ratioP2;P2;SDS_P1;SDS_P2;PMS_P1;PMS_P2;Temp;Humidity;BMP_temperature;BMP_pressure;BME280_temperature;BME280_humidity;BME280_pressure;Samples;Min_cycle;Max_cycle;Signal;HPM_P1;HPM_P2
2021/07/01 00:02:23;;;;;;;23.35;9.02;;;17.00;99.90;;;17.45;100.00;100402.00;4995856;28;20194;-75
2021/07/01 00:04:50;;;;;;;20.00;8.57;;;17.10;99.90;;;17.44;100.00;100405.59;4995087;28;20560;-76
2021/07/01 00:07:17;;;;;;;17.38;9.13;;;17.10;99.90;;;17.42;100.00;100396.06;4994359;28;20662;-76
2021/07/01 00:09:45;;;;;;;19.15;8.38;;;17.00;99.90;;;17.40;100.00;100401.47;5010863;28;20242;-75
2021/07/01 00:12:12;;;;;;;21.27;8.98;;;17.00;99.90;;;17.42;100.00;100388.13;4995787;28;20194;-75
2021/07/01 00:14:38;;;;;;;17.75;7.78;;;17.00;99.90;;;17.44;100.00;100394.16;4994832;28;20187;-76
2021/07/01 00:17:06;;;;;;;19.17;8.25;;;17.00;99.90;;;17.45;100.00;100382.59;4993968;28;20211;-75
2021/07/01 00:19:33;;;;;;;18.10;8.38;;;17.00;99.90;;;17.45;100.00;100385.25;4996920;28;20216;-76
2021/07/01 00:22:00;;;;;;;18.02;7.70;;;17.00;99.90;;;17.44;100.00;100381.78;5013161;28;20548;-76
2021/07/01 00:24:26;;;;;;;19.85;8.10;;;17.00;99.90;;;17.44;100.00;100383.56;4983653;28;20201;-76
2021/07/01 00:26:54;;;;;;;15.43;6.65;;;17.00;99.90;;;17.41;100.00;100381.97;5015193;28;20209;-76
2021/07/01 00:29:21;;;;;;;18.33;7.35;;;17.00;99.90;;;17.39;100.00;100378.59;4983297;28;20301;-75
2021/07/01 00:31:48;;;;;;;18.40;6.43;;;17.00;99.90;;;17.38;100.00;100376.91;5001904;28;20657;-75
2021/07/01 00:34:15;;;;;;;14.63;5.88;;;17.00;99.90;;;17.38;100.00;100365.50;4983277;28;20191;-75
2021/07/01 00:36:42;;;;;;;14.18;5.88;;;17.00;99.90;;;17.36;100.00;100367.41;5002955;28;20270;-76
2021/07/01 00:39:09;;;;;;;16.10;6.05;;;17.00;99.90;;;17.31;100.00;100370.34;4993998;28;20194;-75
2021/07/01 00:41:36;;;;;;;15.98;6.22;;;16.90;99.90;;;17.28;100.00;100359.16;4999243;28;20206;-77
2021/07/01 00:44:05;;;;;;;14.18;6.10;;;16.90;99.90;;;17.26;100.00;100361.88;5018372;28;20222;-75
2021/07/01 00:46:33;;;;;;;15.93;6.70;;;16.90;99.90;;;17.24;100.00;100358.53;4999050;28;20195;-77
2021/07/01 00:49:01;;;;;;;13.20;5.80;;;16.90;99.90;;;17.24;100.00;100358.53;4991593;28;20303;-75
2021/07/01 00:51:28;;;;;;;15.93;6.25;;;16.90;99.90;;;17.27;100.00;100366.25;5006987;28;20213;-76
2021/07/01 00:53:55;;;;;;;17.27;6.50;;;16.90;99.90;;;17.28;100.00;100357.34;4988175;28;20205;-76
2021/07/01 00:56:23;;;;;;;12.35;5.53;;;16.90;99.90;;;17.28;100.00;100362.63;4985921;28;20198;-77
2021/07/01 00:58:54;;;;;;;15.55;6.50;;;16.90;99.90;;;17.28;100.00;100357.34;4983079;28;20223;-76
2021/07/01 01:01:24;;;;;;;16.40;7.03;;;16.90;99.90;;;17.28;100.00;100357.34;4986377;28;20205;-76
2021/07/01 01:03:52;;;;;;;17.52;6.38;;;16.90;99.90;;;17.27;100.00;100352.16;5015032;28;20186;-77
2021/07/01 01:06:19;;;;;;;16.40;7.00;;;16.90;99.90;;;17.28;100.00;100349.41;5000695;28;20201;-76
2021/07/01 01:08:47;;;;;;;15.93;6.53;;;16.90;99.90;;;17.30;100.00;100346.66;4999706;28;20207;-77
2021/07/01 01:11:15;;;;;;;16.38;6.65;;;16.80;99.90;;;17.32;100.00;100350.91;5002799;28;20218;-78
2021/07/01 01:13:45;;;;;;;16.15;7.47;;;16.90;99.90;;;17.33;100.00;100352.56;5002635;28;20237;-76
2021/07/01 01:16:33;;;;;;;20.30;7.32;;;16.90;99.90;;;17.34;100.00;100351.63;5019617;28;20261;-76
2021/07/01 01:19:00;;;;;;;18.15;7.28;;;16.90;99.90;;;17.34;100.00;100348.13;5002668;28;20199;-76
2021/07/01 01:21:31;;;;;;;17.80;7.28;;;16.90;99.90;;;17.36;100.00;100352.34;5002779;28;20174;-77
2021/07/01 01:24:03;;;;;;;19.75;7.80;;;16.90;99.90;;;17.38;100.00;100350.44;5002689;28;20183;-77
2021/07/01 01:26:30;;;;;;;17.63;7.85;;;16.90;99.90;;;17.37;100.00;100338.19;5002175;28;20183;-77
2021/07/01 01:28:58;;;;;;;21.05;8.27;;;16.90;99.90;;;17.36;100.00;100356.81;5002409;28;20215;-77
2021/07/01 01:31:26;;;;;;;17.17;8.00;;;16.90;99.90;;;17.35;100.00;100347.16;5002183;28;20183;-76
2021/07/01 01:33:54;;;;;;;18.20;8.20;;;16.90;99.90;;;17.33;100.00;100344.63;5034444;28;20209;-77
2021/07/01 01:36:21;;;;;;;20.63;8.35;;;16.90;99.90;;;17.31;100.00;100349.19;5001421;28;20271;-76
2021/07/01 01:38:51;;;;;;;17.38;7.15;;;16.90;99.90;;;17.31;100.00;100345.72;5011706;28;20447;-76
2021/07/01 01:41:40;;;;;;;18.40;8.48;;;16.90;99.90;;;17.30;100.00;100342.22;4999617;28;20222;-76
2021/07/01 01:44:07;;;;;;;17.83;7.75;;;16.90;99.90;;;17.32;100.00;100342.97;5001117;28;20183;-77
2021/07/01 01:46:37;;;;;;;18.75;7.45;;;16.90;99.90;;;17.31;100.00;100335.94;5018086;28;20175;-76
2021/07/01 01:49:05;;;;;;;19.25;7.68;;;16.90;99.90;;;17.29;100.00;100340.53;5018435;28;20191;-76
2021/07/01 01:51:34;;;;;;;20.40;7.22;;;16.90;99.90;;;17.28;100.00;100338.00;5018176;28;20163;-76
2021/07/01 01:54:02;;;;;;;17.75;7.57;;;16.90;99.90;;;17.27;100.00;100331.84;5018418;28;20191;-76
2021/07/01 01:56:36;;;;;;;16.58;7.10;;;16.80;99.90;;;17.23;100.00;100333.00;5017148;28;20231;-76
2021/07/01 01:59:05;;;;;;;19.38;7.50;;;16.80;99.90;;;17.23;100.00;100329.56;5014317;28;20217;-76
2021/07/01 02:01:51;;;;;;;16.25;6.75;;;16.80;99.90;;;17.22;100.00;100335.78;5011325;28;20190;-76
2021/07/01 02:04:27;;;;;;;15.70;6.80;;;16.80;99.90;;;17.17;100.00;100330.81;4980304;28;20190;-76
2021/07/01 02:06:55;;;;;;;18.40;7.18;;;16.80;99.90;;;17.15;100.00;100326.56;4976818;28;20201;-76
2021/07/01 02:09:25;;;;;;;17.25;6.97;;;16.70;99.90;;;17.10;100.00;100320.75;4976740;28;20218;-76
2021/07/01 02:11:54;;;;;;;17.92;6.93;;;16.70;99.90;;;17.08;100.00;100320.88;5009371;28;20229;-75
2021/07/01 02:14:25;;;;;;;18.15;6.65;;;16.70;99.90;;;17.08;100.00;100323.53;4977193;28;20202;-76
2021/07/01 02:17:18;;;;;;;16.40;6.68;;;16.70;99.90;;;17.08;100.00;100323.53;4976641;28;20230;-76
2021/07/01 02:19:46;;;;;;;18.83;7.38;;;16.70;99.90;;;17.09;100.00;100319.94;4976425;28;20202;-77
2021/07/01 02:22:13;;;;;;;18.88;7.35;;;16.70;99.90;;;17.10;100.00;100318.13;5008923;28;20286;-77
2021/07/01 02:24:46;;;;;;;16.83;6.45;;;16.70;99.90;;;17.09;100.00;100322.59;5009072;28;20198;-76
2021/07/01 02:27:14;;;;;;;15.15;6.13;;;16.60;99.90;;;17.08;100.00;100325.34;4975851;28;20635;-77
2021/07/01 02:29:42;;;;;;;14.88;6.50;;;16.60;99.90;;;17.06;100.00;100309.56;4976360;28;20722;-75
2021/07/01 02:32:14;;;;;;;15.95;6.07;;;16.70;99.90;;;17.08;100.00;100320.06;4976573;28;20277;-76
2021/07/01 02:34:43;;;;;;;15.57;6.00;;;16.60;99.90;;;17.09;100.00;100319.94;4993757;28;20218;-75
2021/07/01 02:37:30;;;;;;;15.88;5.97;;;16.60;99.90;;;17.10;100.00;100313.69;4992783;28;20222;-76
2021/07/01 02:40:09;;;;;;;13.85;6.15;;;16.70;99.90;;;17.10;100.00;100312.84;4976516;28;20194;-76
2021/07/01 02:42:51;;;;;;;11.48;4.60;;;16.70;99.90;;;17.05;100.00;100318.47;4976169;28;20195;-76
2021/07/01 02:45:20;;;;;;;10.02;4.43;;;16.70;99.90;;;17.01;100.00;100319.63;4975656;28;20190;-76
2021/07/01 02:48:02;;;;;;;10.27;3.90;;;16.60;99.90;;;16.98;100.00;100322.47;4993989;28;20234;-76
2021/07/01 02:50:33;;;;;;;9.00;3.47;;;16.60;99.90;;;16.94;100.00;100314.88;4976063;28;20646;-78
2021/07/01 02:53:01;;;;;;;9.52;3.40;;;16.60;99.90;;;16.93;100.00;100321.13;4993442;28;20194;-75
2021/07/01 02:55:28;;;;;;;10.88;3.78;;;16.50;99.90;;;16.91;100.00;100329.16;4975667;28;20226;-76
2021/07/01 02:57:55;;;;;;;9.55;3.60;;;16.50;99.90;;;16.89;100.00;100325.78;4975788;28;20211;-76
2021/07/01 03:00:23;;;;;;;10.73;3.35;;;16.50;99.90;;;16.85;100.00;100320.78;4992594;28;20194;-77
2021/07/01 03:02:54;;;;;;;9.88;3.40;;;16.40;99.90;;;16.84;100.00;100321.75;4992973;28;20205;-76
2021/07/01 03:05:34;;;;;;;8.75;3.00;;;16.50;99.90;;;16.80;100.00;100326.41;4974858;28;20210;-76
2021/07/01 03:08:01;;;;;;;9.88;3.28;;;16.40;99.90;;;16.79;100.00;100319.44;4974850;28;20217;-76
2021/07/01 03:10:29;;;;;;;8.93;2.80;;;16.40;99.90;;;16.78;100.00;100314.28;4975079;28;20215;-76
2021/07/01 03:13:00;;;;;;;10.52;2.95;;;16.40;99.90;;;16.76;100.00;100324.91;4975358;28;20661;-74
2021/07/01 03:15:29;;;;;;;8.45;2.70;;;16.40;99.90;;;16.75;100.00;100317.09;5007619;28;20198;-76
2021/07/01 03:17:57;;;;;;;10.15;3.00;;;16.40;99.90;;;16.73;100.00;100317.22;4992395;28;20198;-77
2021/07/01 03:20:38;;;;;;;7.88;2.55;;;16.30;99.90;;;16.72;100.00;100325.25;4975151;28;20191;-76
2021/07/01 03:23:26;;;;;;;7.97;2.78;;;16.30;99.90;;;16.71;100.00;100326.22;4975116;28;20205;-77
2021/07/01 03:25:54;;;;;;;8.20;3.08;;;16.30;99.90;;;16.70;100.00;100335.06;4975292;28;20206;-76
2021/07/01 03:28:21;;;;;;;10.45;2.88;;;16.30;99.90;;;16.72;100.00;100317.31;4974818;28;20245;-76
2021/07/01 03:30:50;;;;;;;8.32;2.70;;;16.30;99.90;;;16.70;100.00;100328.00;4975075;28;20219;-76
2021/07/01 03:33:17;;;;;;;7.10;2.35;;;16.30;99.90;;;16.68;100.00;100329.91;4992527;28;20183;-76
2021/07/01 03:35:43;;;;;;;6.22;2.15;;;16.30;99.90;;;16.65;100.00;100338.03;5007761;28;20214;-76
2021/07/01 03:38:29;;;;;;;5.32;1.88;;;16.30;99.90;;;16.63;100.00;100352.31;4996377;28;20304;-75
2021/07/01 03:41:21;;;;;;;7.03;2.00;;;16.30;99.90;;;16.59;100.00;100345.53;4997053;28;20190;-75
2021/07/01 03:43:51;;;;;;;6.40;2.10;;;16.30;99.90;;;16.56;100.00;100356.34;4995283;28;20335;-76
2021/07/01 03:46:21;;;;;;;7.95;1.88;;;16.20;99.90;;;16.56;100.00;100367.72;4979915;28;20217;-76
2021/07/01 03:48:48;;;;;;;5.38;1.95;;;16.20;99.90;;;16.54;100.00;100364.38;4992131;28;20673;-76
2021/07/01 03:51:33;;;;;;;6.40;2.03;;;16.20;99.90;;;16.53;100.00;100356.56;4992262;28;20354;-77
2021/07/01 03:54:18;;;;;;;5.32;1.77;;;16.20;99.90;;;16.45;100.00;100357.00;5007089;28;20285;-76
2021/07/01 03:56:45;;;;;;;5.50;1.83;;;16.10;99.90;;;16.45;100.00;100361.44;4975283;28;20195;-76
2021/07/01 03:59:25;;;;;;;6.22;2.10;;;16.10;99.90;;;16.45;100.00;100367.59;5010884;28;20206;-75
2021/07/01 04:02:12;;;;;;;6.18;2.20;;;16.10;99.90;;;16.45;100.00;100362.31;4996403;28;20214;-76
2021/07/01 04:04:39;;;;;;;7.03;2.05;;;16.10;99.90;;;16.45;100.00;100367.59;4995927;28;20229;-76
2021/07/01 04:07:07;;;;;;;5.22;1.85;;;16.10;99.90;;;16.43;100.00;100358.09;4978025;28;20211;-75
2021/07/01 04:09:34;;;;;;;5.28;1.83;;;16.10;99.90;;;16.45;100.00;100362.31;5010761;28;20554;-76
2021/07/01 04:12:20;;;;;;;5.15;1.80;;;16.10;99.90;;;16.46;100.00;100353.44;4995670;28;20193;-76
2021/07/01 04:15:11;;;;;;;5.28;1.98;;;16.10;99.90;;;16.47;100.00;100349.88;4995462;28;20290;-74
2021/07/01 04:17:57;;;;;;;4.97;1.77;;;16.10;99.90;;;16.44;100.00;100342.13;4995386;28;20711;-75
2021/07/01 04:20:43;;;;;;;5.63;2.10;;;16.10;99.90;;;16.43;100.00;100337.78;4995725;28;20699;-76
2021/07/01 04:23:30;;;;;;;4.78;1.70;;;16.10;99.90;;;16.40;100.00;100340.63;4955213;28;20199;-76
2021/07/01 04:26:16;;;;;;;5.47;1.60;;;16.10;99.90;;;16.38;100.00;100331.13;4996155;28;20307;-76
2021/07/01 04:28:43;;;;;;;5.60;1.70;;;16.00;99.90;;;16.38;100.00;100321.38;4977948;28;20223;-75
2021/07/01 04:31:12;;;;;;;5.53;2.03;;;16.00;99.90;;;16.38;100.00;100329.31;4977626;28;20306;-76
2021/07/01 04:33:45;;;;;;;5.75;1.80;;;16.00;99.90;;;16.37;100.00;100332.91;4977801;28;20191;-76
2021/07/01 04:36:12;;;;;;;5.63;1.90;;;16.00;99.90;;;16.37;100.00;100330.28;4994927;28;20183;-73
2021/07/01 04:38:39;;;;;;;7.32;2.20;;;16.00;99.90;;;16.37;100.00;100338.19;5010108;28;20211;-75
2021/07/01 04:41:08;;;;;;;5.38;1.92;;;16.00;99.90;;;16.36;100.00;100335.66;4977597;28;20191;-75
2021/07/01 04:43:34;;;;;;;4.97;1.73;;;16.00;99.90;;;16.33;100.00;100337.56;4995030;28;20217;-76
2021/07/01 04:46:01;;;;;;;5.97;1.90;;;16.00;99.90;;;16.30;100.00;100339.56;5010204;28;20198;-74
2021/07/01 04:48:29;;;;;;;6.68;2.10;;;16.00;99.90;;;16.29;100.00;100343.16;5009982;28;20235;-76
2021/07/01 04:51:00;;;;;;;6.75;2.40;;;16.00;99.90;;;16.25;100.00;100345.16;4994877;28;20667;-75
2021/07/01 04:53:45;;;;;;;7.88;2.30;;;16.00;99.90;;;16.25;100.00;100349.59;4995020;28;20206;-76
2021/07/01 04:56:44;;;;;;;6.70;2.47;;;15.90;99.90;;;16.19;100.00;100350.81;4994368;28;20199;-76
2021/07/01 04:59:17;;;;;;;7.43;2.35;;;15.90;99.90;;;16.15;100.00;100361.72;4994876;28;20206;-77
2021/07/01 05:02:10;;;;;;;7.72;2.15;;;15.80;99.90;;;16.10;100.00;100355.88;4979276;28;20729;-76
2021/07/01 05:04:49;;;;;;;5.72;1.80;;;15.80;99.90;;;16.07;100.00;100366.66;4976741;28;20222;-76
2021/07/01 05:07:17;;;;;;;4.90;1.48;;;15.80;99.90;;;16.06;100.00;100370.22;4976886;28;20211;-77
2021/07/01 05:09:47;;;;;;;4.88;1.52;;;15.80;99.90;;;16.02;100.00;100368.75;4976591;28;20215;-77
2021/07/01 05:12:34;;;;;;;5.80;1.70;;;15.70;99.90;;;15.99;100.00;100374.22;4994821;28;20199;-76
2021/07/01 05:15:02;;;;;;;5.28;1.70;;;15.70;99.90;;;15.98;100.00;100372.53;4977054;28;20195;-76
2021/07/01 05:17:29;;;;;;;7.95;1.98;;;15.70;99.90;;;15.99;100.00;100369.78;4994741;28;20277;-76
2021/07/01 05:19:56;;;;;;;7.65;2.05;;;15.70;99.90;;;15.98;100.00;100362.81;4976928;28;20194;-76
2021/07/01 05:22:26;;;;;;;5.25;1.85;;;15.70;99.90;;;15.97;100.00;100360.28;4994334;28;20187;-77
2021/07/01 05:25:13;;;;;;;6.30;1.92;;;15.70;99.90;;;15.96;100.00;100356.78;4994726;28;20747;-76
2021/07/01 05:27:58;;;;;;;5.68;1.70;;;15.60;99.90;;;15.94;100.00;100355.22;4996005;28;20354;-77
2021/07/01 05:30:44;;;;;;;5.35;1.50;;;15.70;99.90;;;15.90;100.00;100359.84;4994443;28;20237;-77
2021/07/01 05:33:30;;;;;;;5.57;1.45;;;15.60;99.90;;;15.88;100.00;100351.16;4994578;28;20201;-76
2021/07/01 05:35:57;;;;;;;4.47;1.70;;;15.60;99.90;;;15.91;100.00;100352.75;4976633;28;20285;-76
2021/07/01 05:38:26;;;;;;;4.53;1.50;;;15.60;99.90;;;15.90;100.00;100354.56;4976278;28;20277;-76
2021/07/01 05:40:53;;;;;;;4.32;1.45;;;15.60;99.90;;;15.88;100.00;100358.22;4976661;28;20199;-77
2021/07/01 05:43:20;;;;;;;5.05;1.48;;;15.60;99.90;;;15.87;100.00;100360.03;4976598;28;20669;-77
2021/07/01 05:45:47;;;;;;;4.88;1.50;;;15.60;99.90;;;15.92;100.00;100359.75;4977098;28;20233;-77
2021/07/01 05:48:14;;;;;;;5.85;1.20;;;15.60;99.90;;;15.90;100.00;100358.97;4994004;28;20214;-77
2021/07/01 05:50:44;;;;;;;3.45;1.30;;;15.60;99.90;;;15.85;100.00;100353.16;4976345;28;20708;-77
2021/07/01 05:53:16;;;;;;;4.88;1.35;;;15.60;99.90;;;15.82;100.00;100366.56;4976230;28;20199;-77
2021/07/01 05:55:44;;;;;;;5.43;1.45;;;15.60;99.90;;;15.79;100.00;100369.41;4977639;28;20190;-76
2021/07/01 05:58:11;;;;;;;5.03;1.48;;;15.50;99.90;;;15.73;100.00;100370.63;4975983;28;20218;-78
2021/07/01 06:00:39;;;;;;;4.05;1.50;;;15.50;99.90;;;15.66;100.00;100373.75;4993759;28;20203;-76
2021/07/01 06:03:06;;;;;;;3.88;1.33;;;15.40;99.90;;;15.66;100.00;100365.84;5008626;28;20226;-77
2021/07/01 06:05:35;;;;;;;3.38;1.30;;;15.40;99.90;;;15.67;100.00;100372.81;4975872;28;20209;-77
2021/07/01 06:08:29;;;;;;;3.50;1.35;;;15.40;99.90;;;15.64;100.00;100375.66;4993175;28;20215;-76
2021/07/01 06:11:02;;;;;;;4.25;1.30;;;15.30;99.90;;;15.57;100.00;100382.25;4976191;28;20215;-77
2021/07/01 06:13:30;;;;;;;4.97;1.45;;;15.30;99.90;;;15.56;100.00;100380.56;4993989;28;20230;-77
2021/07/01 06:15:57;;;;;;;6.22;1.40;;;15.30;99.90;;;15.55;100.00;100378.88;4977029;28;20665;-78
2021/07/01 06:18:24;;;;;;;4.85;1.40;;;15.20;99.90;;;15.55;100.00;100392.06;4993675;28;20203;-77
2021/07/01 06:20:52;;;;;;;5.43;1.50;;;15.30;99.90;;;15.55;100.00;100397.34;4992691;28;20563;-77
2021/07/01 06:23:19;;;;;;;5.97;1.55;;;15.20;99.90;;;15.52;100.00;100394.91;4976633;28;20200;-76
2021/07/01 06:25:48;;;;;;;6.45;1.55;;;15.20;99.90;;;15.47;100.00;100389.94;4976255;28;20194;-76
2021/07/01 06:28:17;;;;;;;7.25;1.50;;;15.20;99.90;;;15.48;100.00;100393.38;4975387;28;20586;-77
2021/07/01 06:30:46;;;;;;;4.68;1.40;;;15.20;99.90;;;15.46;100.00;100392.63;4993396;28;20221;-76
2021/07/01 06:33:14;;;;;;;7.15;1.80;;;15.20;99.90;;;15.46;100.00;100396.13;4976398;28;20195;-77
2021/07/01 06:35:49;;;;;;;5.47;1.75;;;15.10;99.90;;;15.48;100.00;100407.44;4993611;28;20249;-77
2021/07/01 06:38:23;;;;;;;6.20;1.50;;;15.20;99.90;;;15.49;100.00;100400.38;4975898;28;20239;-77
2021/07/01 06:41:09;;;;;;;7.38;1.88;;;15.20;99.90;;;15.48;100.00;100409.22;4993771;28;20198;-75
2021/07/01 06:43:57;;;;;;;6.40;1.75;;;15.20;99.90;;;15.47;100.00;100413.66;4995054;28;20571;-78
2021/07/01 06:46:43;;;;;;;6.88;1.80;;;15.20;99.90;;;15.44;100.00;100415.63;4994891;28;20194;-77
2021/07/01 06:49:32;;;;;;;5.97;1.90;;;15.10;99.90;;;15.48;100.00;100417.13;5005740;28;20201;-77
2021/07/01 06:52:18;;;;;;;6.75;1.95;;;15.20;99.90;;;15.51;100.00;100420.41;5010988;28;20250;-76
2021/07/01 06:55:06;;;;;;;7.10;2.03;;;15.20;99.90;;;15.48;100.00;100414.50;5002638;28;20197;-77
2021/07/01 06:57:40;;;;;;;6.90;2.00;;;15.20;99.90;;;15.48;100.00;100414.50;4975244;28;20210;-78
2021/07/01 07:00:13;;;;;;;6.75;2.08;;;15.20;99.90;;;15.46;100.00;100411.94;4992810;28;20214;-76
2021/07/01 07:02:41;;;;;;;6.32;1.83;;;15.10;99.90;;;15.43;100.00;100424.47;4992666;28;20191;-76
2021/07/01 07:05:10;;;;;;;6.47;1.83;;;15.10;99.90;;;15.46;100.00;100421.66;5007746;28;20241;-77
2021/07/01 07:07:39;;;;;;;8.48;2.08;;;15.10;99.90;;;15.47;100.00;100428.63;4975226;28;20597;-77
2021/07/01 07:10:07;;;;;;;5.85;1.73;;;15.10;99.90;;;15.45;100.00;100430.50;4992599;28;20198;-76
2021/07/01 07:12:39;;;;;;;6.18;2.03;;;15.10;99.90;;;15.44;100.00;100434.09;4992778;28;20636;-77
2021/07/01 07:15:09;;;;;;;5.60;1.80;;;15.10;99.90;;;15.47;100.00;100433.91;5007836;28;20286;-76
2021/07/01 07:17:38;;;;;;;5.13;1.60;;;15.10;99.90;;;15.46;100.00;100430.41;4992752;28;20214;-77
2021/07/01 07:20:07;;;;;;;7.20;1.65;;;15.10;99.90;;;15.44;100.00;100440.19;4992409;28;20201;-77
2021/07/01 07:22:40;;;;;;;5.43;1.67;;;15.10;99.90;;;15.41;100.00;100432.50;4975090;28;20708;-77
2021/07/01 07:25:10;;;;;;;6.55;1.90;;;15.10;99.90;;;15.40;100.00;100438.72;4992571;28;20190;-77
2021/07/01 07:27:40;;;;;;;6.32;1.83;;;15.10;99.90;;;15.40;100.00;100445.78;4992363;28;20576;-78
2021/07/01 07:30:09;;;;;;;5.10;1.70;;;15.10;99.90;;;15.42;100.00;100446.53;4975041;28;20202;-76
2021/07/01 07:32:40;;;;;;;7.85;2.20;;;15.10;99.90;;;15.42;100.00;100441.25;5009726;28;20198;-77
2021/07/01 07:35:07;;;;;;;5.93;1.70;;;15.10;99.90;;;15.43;100.00;100438.53;4979113;28;20222;-77
2021/07/01 07:37:35;;;;;;;7.13;2.00;;;15.10;99.90;;;15.42;100.00;100443.91;4978589;28;20222;-77
2021/07/01 07:40:03;;;;;;;5.20;1.55;;;15.10;99.90;;;15.41;100.00;100444.81;4996247;28;20197;-77
2021/07/01 07:42:31;;;;;;;5.15;1.52;;;15.10;99.90;;;15.40;100.00;100449.25;5011305;28;20220;-77
2021/07/01 07:45:00;;;;;;;5.63;1.88;;;15.10;99.90;;;15.41;100.00;100445.69;4978889;28;20191;-78
2021/07/01 07:47:30;;;;;;;5.32;1.50;;;15.10;99.90;;;15.41;100.00;100455.38;4996014;28;20199;-77
2021/07/01 07:49:58;;;;;;;4.40;1.58;;;15.10;99.90;;;15.38;100.00;100455.53;4978877;28;20669;-77
2021/07/01 07:52:26;;;;;;;4.63;1.55;;;15.10;99.90;;;15.40;100.00;100454.53;4978328;28;20219;-77
2021/07/01 07:54:56;;;;;;;7.20;1.90;;;15.20;99.90;;;15.47;100.00;100452.38;4996084;28;20592;-77
2021/07/01 07:57:27;;;;;;;5.85;2.10;;;15.20;99.90;;;15.46;100.00;100453.28;4996595;28;20225;-76
2021/07/01 07:59:59;;;;;;;6.22;1.73;;;15.20;99.90;;;15.47;100.00;100461.13;4995842;28;20245;-77
2021/07/01 08:02:44;;;;;;;4.82;1.75;;;15.20;99.90;;;15.50;100.00;100468.00;4979054;28;20294;-77
2021/07/01 08:05:14;;;;;;;5.32;1.80;;;15.20;99.90;;;15.52;100.00;100464.34;4996193;28;20567;-76
2021/07/01 08:07:42;;;;;;;6.22;1.83;;;15.20;99.90;;;15.52;100.00;100460.84;4995515;28;20405;-77
2021/07/01 08:10:13;;;;;;;3.70;1.50;;;15.20;99.90;;;15.53;100.00;100468.66;4978369;28;20199;-77
2021/07/01 08:12:42;;;;;;;3.95;1.27;;;15.20;99.90;;;15.51;100.00;100465.25;4978500;28;20194;-77
2021/07/01 08:15:13;;;;;;;5.07;1.40;;;15.20;99.90;;;15.51;100.00;100472.31;4977986;28;20201;-77
2021/07/01 08:17:45;;;;;;;3.25;1.30;;;15.20;99.90;;;15.45;100.00;100462.16;4978114;28;20211;-77
2021/07/01 08:20:17;;;;;;;3.75;1.20;;;15.20;99.90;;;15.43;100.00;100469.31;4978096;28;20195;-77
2021/07/01 08:22:46;;;;;;;5.03;1.60;;;15.10;99.90;;;15.43;100.00;100474.59;4978204;28;20206;-77
2021/07/01 08:25:17;;;;;;;6.13;1.67;;;15.10;99.90;;;15.41;100.00;100466.78;4978185;28;20186;-77
2021/07/01 08:27:47;;;;;;;5.40;1.52;;;15.10;99.90;;;15.41;100.00;100461.50;4977681;28;20214;-78
2021/07/01 08:30:18;;;;;;;5.70;1.75;;;15.10;99.90;;;15.42;100.00;100471.13;5010447;28;20198;-77
2021/07/01 08:32:49;;;;;;;4.53;1.40;;;15.10;99.90;;;15.43;100.00;100482.50;4995534;28;20193;-78
2021/07/01 08:35:20;;;;;;;4.55;1.55;;;15.20;99.90;;;15.42;100.00;100483.44;5010851;28;20226;-77
2021/07/01 08:37:50;;;;;;;5.30;1.60;;;15.10;99.90;;;15.38;100.00;100485.41;5010081;28;20258;-77
2021/07/01 08:40:20;;;;;;;5.68;1.67;;;15.10;99.90;;;15.37;100.00;100485.50;4977718;28;20680;-77
2021/07/01 08:42:52;;;;;;;6.95;1.73;;;15.10;99.90;;;15.38;100.00;100481.91;4994856;28;20186;-77
2021/07/01 08:45:19;;;;;;;4.10;1.50;;;15.10;99.90;;;15.36;100.00;100479.34;4994473;28;20183;-77
2021/07/01 08:48:00;;;;;;;4.43;1.40;;;15.10;99.90;;;15.34;100.00;100483.03;4977510;28;20221;-77
2021/07/01 08:50:33;;;;;;;4.57;1.60;;;15.10;99.90;;;15.36;100.00;100481.13;4994855;28;20191;-76
2021/07/01 08:53:09;;;;;;;6.05;1.77;;;15.10;99.90;;;15.40;100.00;100486.19;4995020;28;20183;-75
2021/07/01 08:55:41;;;;;;;4.95;1.52;;;15.10;99.90;;;15.41;100.00;100481.75;4978171;28;20191;-77
2021/07/01 08:58:22;;;;;;;5.70;1.80;;;15.10;99.90;;;15.44;100.00;100494.75;4978004;28;20584;-78
2021/07/01 09:00:49;;;;;;;5.82;1.77;;;15.20;99.90;;;15.43;100.00;100487.78;4977912;28;20207;-78
2021/07/01 09:03:18;;;;;;;4.05;1.80;;;15.20;99.90;;;15.44;100.00;100492.13;4978354;28;20291;-78
2021/07/01 09:05:47;;;;;;;5.95;2.05;;;15.20;99.90;;;15.43;100.00;100495.69;4995215;28;20195;-78
2021/07/01 09:08:15;;;;;;;5.93;1.90;;;15.10;99.90;;;15.42;100.00;100494.00;4995554;28;20282;-78
2021/07/01 09:10:51;;;;;;;7.40;1.83;;;15.10;99.90;;;15.41;100.00;100493.16;4995587;28;20654;-77
2021/07/01 09:13:21;;;;;;;6.82;1.80;;;15.10;99.90;;;15.36;100.00;100499.59;4977509;28;20194;-78
2021/07/01 09:15:50;;;;;;;5.10;1.88;;;15.10;99.90;;;15.32;100.00;100501.56;4977217;28;20203;-77
2021/07/01 09:18:21;;;;;;;5.13;1.92;;;15.00;99.90;;;15.34;100.00;100510.25;4976863;28;20224;-76
2021/07/01 09:20:48;;;;;;;7.25;2.30;;;15.00;99.90;;;15.31;100.00;100513.06;4977238;28;20657;-78
2021/07/01 09:23:15;;;;;;;6.43;2.15;;;15.00;99.90;;;15.30;100.00;100510.53;4977361;28;20190;-77
2021/07/01 09:25:43;;;;;;;6.13;2.33;;;15.00;99.90;;;15.28;100.00;100512.41;5009611;28;20194;-77
2021/07/01 09:28:10;;;;;;;6.20;2.25;;;14.90;99.90;;;15.25;100.00;100520.50;4996887;28;20211;-77
2021/07/01 09:30:37;;;;;;;8.90;2.65;;;14.90;99.90;;;15.24;100.00;100524.09;4994797;28;20191;-78
2021/07/01 09:33:08;;;;;;;6.32;2.40;;;14.90;99.90;;;15.22;100.00;100518.06;4994630;28;20274;-77
2021/07/01 09:35:37;;;;;;;8.48;2.70;;;14.80;99.90;;;15.27;100.00;100513.34;4994484;28;20187;-77
2021/07/01 09:38:07;;;;;;;7.47;2.53;;;14.80;99.90;;;15.29;100.00;100522.84;4976449;28;20219;-76
2021/07/01 09:40:36;;;;;;;8.95;3.03;;;14.90;99.90;;;15.31;100.00;100523.63;5009217;28;20203;-76
2021/07/01 09:43:06;;;;;;;9.40;3.25;;;14.90;99.90;;;15.35;100.00;100521.66;4976724;28;20195;-76
2021/07/01 09:45:37;;;;;;;7.28;3.05;;;14.90;99.90;;;15.37;100.00;100527.69;4994348;28;20194;-77
2021/07/01 09:48:08;;;;;;;8.18;2.90;;;14.90;99.90;;;15.35;100.00;100532.19;4994276;28;20230;-77
2021/07/01 09:50:45;;;;;;;7.50;3.03;;;14.90;99.90;;;15.35;100.00;100532.19;4994483;28;20608;-78
2021/07/01 09:53:17;;;;;;;8.73;3.20;;;14.90;99.90;;;15.35;100.00;100540.09;4975558;28;20599;-78
2021/07/01 09:55:51;;;;;;;9.18;3.40;;;15.00;99.90;;;15.39;100.00;100541.63;4994043;28;20191;-78
2021/07/01 09:58:22;;;;;;;7.90;3.17;;;15.00;99.90;;;15.41;100.00;100537.13;4976839;28;20215;-77
2021/07/01 10:00:50;;;;;;;9.00;3.22;;;15.00;99.90;;;15.44;100.00;100540.44;4978156;28;20594;-77
2021/07/01 10:03:17;;;;;;;8.23;3.50;;;15.10;99.90;;;15.46;100.00;100542.97;5003411;28;20206;-76
2021/07/01 10:05:46;;;;;;;8.65;3.30;;;15.10;99.90;;;15.46;100.00;100546.47;4997682;28;20195;-77
2021/07/01 10:08:13;;;;;;;7.88;3.25;;;15.10;99.90;;;15.44;100.00;100547.50;5014863;28;20210;-78
2021/07/01 10:10:47;;;;;;;9.40;4.00;;;15.10;99.90;;;15.46;100.00;100545.59;4980006;28;20199;-77
2021/07/01 10:13:15;;;;;;;8.80;3.47;;;15.10;99.90;;;15.48;100.00;100552.50;4993791;28;20805;-78
2021/07/01 10:15:46;;;;;;;8.80;4.07;;;15.10;99.90;;;15.50;100.00;100557.69;4976626;28;20214;-78
2021/07/01 10:18:15;;;;;;;8.98;3.90;;;15.20;99.90;;;15.49;100.00;100554.19;4993716;28;20742;-78
2021/07/01 10:20:46;;;;;;;10.90;3.60;;;15.20;99.90;;;15.47;100.00;100552.59;4977501;28;20187;-78
2021/07/01 10:23:21;;;;;;;8.35;4.05;;;15.20;99.90;;;15.49;100.00;100556.00;4977250;28;20642;-77
2021/07/01 10:25:50;;;;;;;9.32;3.78;;;15.20;99.90;;;15.47;100.00;100557.88;4976484;28;20201;-77